Time;durP1;ratioP1;P1;durP2;ratioP2;P2;SDS_P1;SDS_P2;PMS_P1;PMS_P2;Temp;Humidity;BMP_temperature;BMP_pressure;BME280_temperature;BME280_humidity;BME280_pressure;Samples;Min_cycle;Max_cycle;Signal;HPM_P1;HPM_P2
2022/01/23 00:03:30;;;;;;;17.10;7.40;;;10.80;47.10;;;;;;215793;1293;24374;-56
2022/01/23 00:08:33;;;;;;;17.00;7.60;;;10.70;47.80;;;;;;215701;1293;22610;-52
2022/01/23 00:17:17;;;;;;;15.40;7.50;;;10.80;47.20;;;;;;215734;1293;24326;-55
2022/01/23 00:19:00;;;;;;;18.40;8.60;;;10.70;47.10;;;;;;215436;1293;22573;-56
2022/01/23 00:34:36;;;;;;;;;;;10.70;47.20;;;;;;215701;1293;22608;-56
2022/01/23 00:39:42;;;;;;;15.90;7.80;;;10.70;47.20;;;;;;215749;1293;22602;-55
2022/01/23 00:44:52;;;;;;;14.50;7.30;;;10.70;47.20;;;;;;215695;1293;22570;-55
2022/01/23 00:49:56;;;;;;;19.00;7.90;;;10.70;47.20;;;;;;215711;1293;22589;-54
2022/01/23 00:55:04;;;;;;;15.90;8.00;;;10.70;47.20;;;;;;215669;1293;22810;-57
2022/01/23 01:00:12;;;;;;;15.70;7.30;;;10.70;47.50;;;;;;215738;1293;22613;-53
2022/01/23 01:05:17;;;;;;;16.90;8.10;;;10.70;47.20;;;;;;215705;1293;22694;-57
2022/01/23 01:10:27;;;;;;;18.50;6.90;;;10.70;47.20;;;;;;215806;1293;22614;-56
2022/01/23 01:15:54;;;;;;;18.30;8.80;;;10.70;47.30;;;;;;215579;1293;24282;-57
2022/01/23 01:31:49;;;;;;;14.40;7.60;;;10.60;47.20;;;;;;215918;1293;25303;-55
2022/01/23 01:36:54;;;;;;;17.60;8.30;;;10.60;47.10;;;;;;215734;1293;22597;-53
2022/01/23 01:42:00;;;;;;;16.90;9.00;;;10.60;47.20;;;;;;215752;1293;24388;-54
2022/01/23 01:47:07;;;;;;;16.10;7.70;;;10.70;47.20;;;;;;215595;1293;25315;-56
2022/01/23 01:52:16;;;;;;;16.10;8.40;;;10.60;47.10;;;;;;215668;1293;25831;-57
2022/01/23 01:57:20;;;;;;;15.60;8.20;;;10.70;47.20;;;;;;215676;1293;22570;-54
2022/01/23 02:51:53;;;;;;;17.30;8.60;;;10.70;46.90;;;;;;215995;1293;22696;-52
2022/01/23 02:57:03;;;;;;;18.70;9.10;;;10.70;46.80;;;;;;215607;1293;25353;-54
2022/01/23 03:07:49;;;;;;;17.10;8.40;;;10.60;47.10;;;;;;215534;1293;24488;-54
2022/01/23 03:29:20;;;;;;;17.40;8.80;;;10.70;47.00;;;;;;215666;1293;24364;-55
2022/01/23 03:34:27;;;;;;;14.30;7.40;;;10.70;46.80;;;;;;215841;1293;22563;-55
2022/01/23 03:39:31;;;;;;;16.50;8.30;;;10.70;46.80;;;;;;215796;1292;22606;-54
2022/01/23 03:44:40;;;;;;;15.80;7.90;;;10.70;46.80;;;;;;215862;1293;25554;-56
2022/01/23 03:49:44;;;;;;;16.30;8.30;;;10.70;46.50;;;;;;215772;1292;24466;-56
2022/01/23 03:55:08;;;;;;;16.70;7.60;;;10.60;47.00;;;;;;215734;1293;22593;-53
2022/01/23 04:00:15;;;;;;;15.60;8.30;;;10.60;47.10;;;;;;215846;1293;25974;-56
2022/01/23 04:05:19;;;;;;;16.50;8.90;;;10.60;47.70;;;;;;215729;1293;22571;-56
2022/01/23 04:10:26;;;;;;;14.80;8.10;;;10.60;46.80;;;;;;215615;1293;22570;-57
2022/01/23 04:15:42;;;;;;;13.80;7.50;;;10.70;46.80;;;;;;215627;1293;22605;-53
2022/01/23 05:09:19;;;;;;;13.40;6.70;;;10.50;47.50;;;;;;215566;1293;22571;-56
2022/01/23 05:14:43;;;;;;;14.80;7.00;;;10.50;47.30;;;;;;215873;1293;22615;-55
2022/01/23 05:19:46;;;;;;;16.20;7.90;;;10.50;47.10;;;;;;215702;1292;22602;-57
2022/01/23 05:25:19;;;;;;;12.00;7.10;;;10.50;47.10;;;;;;215914;1293;25417;-55
2022/01/23 05:30:15;;;;;;;13.30;7.00;;;10.50;47.50;;;;;;215659;1293;26124;-53
2022/01/23 05:35:21;;;;;;;13.30;6.80;;;10.60;47.50;;;;;;216044;1293;22773;-54
2022/01/23 05:40:28;;;;;;;14.20;7.40;;;10.60;47.20;;;;;;215838;1293;22664;-55
2022/01/23 05:45:37;;;;;;;13.80;7.10;;;10.60;46.80;;;;;;215962;1293;25417;-55
2022/01/23 05:50:41;;;;;;;14.40;7.10;;;10.60;46.90;;;;;;215774;1292;22576;-54
2022/01/23 05:56:04;;;;;;;;;;;10.60;46.80;;;;;;215639;1293;296773;-55
2022/01/23 06:01:26;;;;;;;13.80;7.30;;;10.70;46.80;;;;;;215815;1293;22570;-54
2022/01/23 06:06:36;;;;;;;12.80;7.30;;;10.50;47.00;;;;;;215831;1293;22595;-56
2022/01/23 06:11:40;;;;;;;15.50;7.20;;;10.60;47.00;;;;;;215799;1293;25305;-53
2022/01/23 06:16:43;;;;;;;16.80;8.20;;;10.50;47.10;;;;;;215728;1293;22579;-55
2022/01/23 06:22:06;;;;;;;14.00;7.20;;;10.50;47.00;;;;;;215865;1293;25299;-56
2022/01/23 06:27:23;;;;;;;13.70;7.40;;;10.50;47.10;;;;;;215932;1293;26704;-56
2022/01/23 06:32:27;;;;;;;15.90;7.60;;;10.50;47.00;;;;;;215966;1293;22588;-56
2022/01/23 06:37:30;;;;;;;15.20;7.40;;;10.50;47.00;;;;;;215742;1293;22591;-56
2022/01/23 06:42:34;;;;;;;13.50;7.30;;;10.60;47.00;;;;;;215895;1293;22653;-56
2022/01/23 06:47:58;;;;;;;11.90;6.80;;;10.60;47.00;;;;;;215985;1293;22592;-54
2022/01/23 06:53:01;;;;;;;15.00;7.00;;;10.60;46.90;;;;;;215674;1293;24266;-56
2022/01/23 06:58:05;;;;;;;14.60;7.50;;;10.60;46.70;;;;;;215790;1293;22656;-56
2022/01/23 07:03:10;;;;;;;14.60;7.00;;;10.60;46.70;;;;;;215870;1293;22596;-53
2022/01/23 07:08:37;;;;;;;13.90;7.60;;;10.50;46.90;;;;;;215769;1293;25309;-56
2022/01/23 07:14:04;;;;;;;11.10;6.00;;;10.60;47.00;;;;;;216047;1293;23066;-55
2022/01/23 07:19:28;;;;;;;11.40;6.40;;;10.50;47.00;;;;;;216082;1293;24418;-57
2022/01/23 07:24:39;;;;;;;13.50;6.70;;;10.50;47.00;;;;;;216109;1293;24422;-56
2022/01/23 07:29:44;;;;;;;12.50;7.00;;;10.50;47.00;;;;;;215447;1293;22568;-55
2022/01/23 07:34:52;;;;;;;12.70;6.70;;;10.50;47.00;;;;;;215784;1293;22729;-54
2022/01/23 07:39:57;;;;;;;14.40;6.80;;;10.60;46.90;;;;;;215895;1293;25370;-57
2022/01/23 07:45:14;;;;;;;14.60;7.00;;;10.60;47.30;;;;;;215496;1293;25284;-59
2022/01/23 07:50:36;;;;;;;12.20;6.80;;;10.50;47.00;;;;;;215699;1293;24423;-56
2022/01/23 07:55:59;;;;;;;12.80;6.40;;;10.50;47.10;;;;;;215879;1293;22764;-56
2022/01/23 08:01:18;;;;;;;12.80;6.80;;;10.60;47.00;;;;;;215938;1293;24294;-53
2022/01/23 08:06:46;;;;;;;11.50;6.30;;;10.60;47.10;;;;;;215772;1293;26138;-55
2022/01/23 08:12:09;;;;;;;12.50;6.00;;;10.60;47.10;;;;;;215941;1293;22575;-56
2022/01/23 08:17:13;;;;;;;14.30;6.90;;;10.50;47.10;;;;;;215799;1293;23061;-55
2022/01/23 08:22:18;;;;;;;13.20;6.00;;;10.60;47.00;;;;;;215726;1293;22598;-56
2022/01/23 08:27:22;;;;;;;13.70;7.00;;;10.60;46.80;;;;;;215865;1292;22592;-55
2022/01/23 08:32:32;;;;;;;11.10;6.10;;;10.60;46.90;;;;;;215753;1293;24373;-55
2022/01/23 08:37:36;;;;;;;13.60;6.90;;;10.60;46.80;;;;;;215707;1293;22609;-55
2022/01/23 08:42:39;;;;;;;14.70;6.80;;;10.60;46.80;;;;;;216108;1293;22589;-55
2022/01/23 08:47:43;;;;;;;13.00;6.90;;;10.70;46.90;;;;;;215666;1293;22589;-56
2022/01/23 08:52:48;;;;;;;13.20;7.10;;;10.60;46.90;;;;;;215792;1293;23566;-56
2022/01/23 08:57:53;;;;;;;13.00;6.60;;;10.60;47.10;;;;;;215667;1292;24452;-55
2022/01/23 09:03:08;;;;;;;14.00;5.90;;;10.60;47.10;;;;;;215872;1293;25451;-55
2022/01/23 09:08:35;;;;;;;11.20;6.10;;;10.60;46.50;;;;;;215845;1293;25505;-59
2022/01/23 09:13:52;;;;;;;12.10;6.40;;;10.60;47.40;;;;;;215644;1293;24406;-55
2022/01/23 09:18:59;;;;;;;12.40;6.80;;;10.60;47.00;;;;;;215718;1293;24344;-54
2022/01/23 09:24:13;;;;;;;12.90;6.10;;;10.60;47.00;;;;;;215692;1293;24428;-55
2022/01/23 09:29:24;;;;;;;10.80;5.50;;;10.60;47.10;;;;;;215669;1293;23529;-57
2022/01/23 09:34:33;;;;;;;11.50;6.40;;;10.60;47.30;;;;;;215690;1292;22596;-56
2022/01/23 09:39:45;;;;;;;11.90;6.50;;;10.60;47.30;;;;;;215683;1293;24398;-57
2022/01/23 09:44:56;;;;;;;11.90;6.50;;;10.60;47.10;;;;;;215830;1293;24707;-53
2022/01/23 09:50:03;;;;;;;13.10;5.90;;;10.60;47.50;;;;;;215739;1293;22639;-57
2022/01/23 09:55:13;;;;;;;11.90;5.60;;;10.60;47.10;;;;;;215646;1293;22654;-56
2022/01/23 10:00:33;;;;;;;12.80;6.90;;;10.70;47.10;;;;;;215770;1293;22576;-56
2022/01/23 10:05:37;;;;;;;11.80;5.70;;;10.70;47.10;;;;;;215836;1293;25400;-56
2022/01/23 10:10:52;;;;;;;10.50;6.40;;;10.70;47.10;;;;;;215929;1293;22595;-53
2022/01/23 10:16:04;;;;;;;11.20;6.10;;;10.70;46.90;;;;;;215860;1293;22612;-58
2022/01/23 10:21:21;;;;;;;9.80;5.00;;;10.80;46.90;;;;;;215991;1292;25489;-57
2022/01/23 10:26:58;;;;;;;11.50;6.10;;;10.70;47.20;;;;;;215529;1293;24829;-56
2022/01/23 10:32:23;;;;;;;11.30;6.00;;;10.70;46.80;;;;;;215853;1293;22748;-57
2022/01/23 10:37:45;;;;;;;10.50;6.10;;;10.70;47.10;;;;;;215984;1293;25431;-54
2022/01/23 10:48:35;;;;;;;10.70;5.60;;;10.70;47.30;;;;;;215392;1293;24376;-56
2022/01/23 10:54:07;;;;;;;10.90;5.50;;;10.70;47.00;;;;;;216009;1293;24309;-55
2022/01/23 10:59:12;;;;;;;10.20;5.40;;;10.70;46.90;;;;;;215784;1292;22597;-57
2022/01/23 11:04:22;;;;;;;8.70;4.80;;;10.70;47.10;;;;;;215714;1293;24023;-57
2022/01/23 11:09:29;;;;;;;8.60;4.90;;;10.70;47.40;;;;;;215760;1293;24367;-56
2022/01/23 11:20:02;;;;;;;12.40;6.10;;;10.80;47.00;;;;;;215551;1293;23236;-55
2022/01/23 11:25:09;;;;;;;10.70;5.50;;;10.80;47.10;;;;;;215695;1293;25658;-56
2022/01/23 11:30:13;;;;;;;8.80;5.00;;;10.80;47.00;;;;;;215654;1293;22576;-57
2022/01/23 11:35:19;;;;;;;11.20;5.00;;;10.80;47.10;;;;;;215975;1293;25262;-57
2022/01/23 11:56:47;;;;;;;9.00;5.10;;;10.80;47.00;;;;;;215875;1293;23557;-54
2022/01/23 12:02:36;;;;;;;9.70;5.50;;;10.80;47.00;;;;;;215864;1293;22745;-59
2022/01/23 12:07:42;;;;;;;8.70;4.60;;;10.80;47.10;;;;;;215816;1292;24250;-55
2022/01/23 12:18:48;;;;;;;9.00;5.00;;;10.80;47.10;;;;;;215762;1293;24270;-54
2022/01/23 12:24:03;;;;;;;7.10;4.30;;;10.80;47.10;;;;;;215683;1293;22585;-55
2022/01/23 12:29:14;;;;;;;8.80;4.70;;;10.90;47.10;;;;;;215836;1293;22705;-54
2022/01/23 12:35:00;;;;;;;8.70;5.00;;;10.80;47.30;;;;;;215809;1292;22678;-56
2022/01/23 12:40:36;;;;;;;7.80;4.30;;;10.90;47.30;;;;;;215911;1293;25244;-54
2022/01/23 12:45:59;;;;;;;12.00;6.00;;;10.90;47.20;;;;;;215789;1293;22557;-57
2022/01/23 12:51:06;;;;;;;8.30;4.90;;;10.80;47.10;;;;;;215637;1292;23950;-55
2022/01/23 12:56:16;;;;;;;9.20;5.10;;;10.90;47.40;;;;;;216322;1293;24112;-56
2022/01/23 13:01:24;;;;;;;7.80;4.40;;;10.80;47.50;;;;;;215838;1293;22773;-54
2022/01/23 13:06:36;;;;;;;8.00;4.80;;;10.90;47.20;;;;;;216121;1293;22729;-58
2022/01/23 13:34:58;;;;;;;8.70;4.70;;;10.90;47.60;;;;;;216090;1293;24482;-58
2022/01/23 13:40:15;;;;;;;8.90;4.30;;;10.80;47.30;;;;;;215909;1293;26433;-55
2022/01/23 14:02:17;;;;;;;10.20;5.30;;;10.80;47.30;;;;;;216086;1293;24262;-54
2022/01/23 14:07:27;;;;;;;9.60;5.10;;;10.80;47.40;;;;;;216044;1293;25350;-57
2022/01/23 14:12:32;;;;;;;8.40;4.90;;;10.90;47.80;;;;;;215858;1293;22569;-56
2022/01/23 14:18:07;;;;;;;9.80;5.10;;;10.90;47.40;;;;;;215714;1293;24193;-56
2022/01/23 14:23:17;;;;;;;9.10;4.50;;;10.90;47.50;;;;;;215913;1293;25436;-57
2022/01/23 14:28:34;;;;;;;7.50;4.00;;;10.90;47.40;;;;;;215988;1293;22595;-57
2022/01/23 14:33:39;;;;;;;7.80;4.60;;;10.90;47.40;;;;;;215772;1293;23249;-57
2022/01/23 14:39:05;;;;;;;8.00;4.50;;;10.90;47.40;;;;;;215956;1293;26547;-56
2022/01/23 14:44:21;;;;;;;8.10;4.70;;;10.90;47.00;;;;;;216052;1293;22655;-56
2022/01/23 14:49:30;;;;;;;7.50;4.20;;;10.90;47.40;;;;;;216057;1293;22683;-55
2022/01/23 14:54:42;;;;;;;6.40;4.10;;;10.90;47.40;;;;;;215921;1293;22659;-55
2022/01/23 14:59:50;;;;;;;8.90;4.70;;;10.90;47.70;;;;;;216160;1293;22572;-57
2022/01/23 15:05:04;;;;;;;8.60;4.30;;;10.90;47.90;;;;;;216240;1293;22624;-56
2022/01/23 15:10:17;;;;;;;8.10;5.10;;;10.90;47.30;;;;;;215940;1293;22671;-56
2022/01/23 15:15:31;;;;;;;7.20;4.20;;;11.00;47.70;;;;;;215333;1293;27584;-55
2022/01/23 15:20:41;;;;;;;7.20;4.30;;;10.90;47.40;;;;;;215561;1293;23826;-56
2022/01/23 15:25:58;;;;;;;9.10;4.30;;;10.90;47.30;;;;;;215658;1293;22820;-55
2022/01/23 15:31:15;;;;;;;7.40;3.90;;;10.90;47.30;;;;;;215541;1293;22674;-56
2022/01/23 15:36:30;;;;;;;7.70;4.30;;;11.00;47.30;;;;;;215539;1293;24263;-55
2022/01/23 15:41:36;;;;;;;7.10;4.60;;;10.90;47.40;;;;;;215792;1292;22574;-56
2022/01/23 15:46:44;;;;;;;7.70;4.40;;;10.90;47.40;;;;;;215980;1293;22609;-57
2022/01/23 15:51:48;;;;;;;7.10;4.40;;;10.90;47.50;;;;;;215684;1293;22616;-56
2022/01/23 15:56:54;;;;;;;8.70;4.70;;;10.90;47.40;;;;;;215730;1293;22579;-55
2022/01/23 16:01:58;;;;;;;9.80;5.00;;;10.90;47.30;;;;;;215873;1293;22595;-56
2022/01/23 16:07:06;;;;;;;7.00;4.30;;;10.90;47.40;;;;;;215864;1293;22891;-56
2022/01/23 16:12:12;;;;;;;8.00;5.00;;;10.90;47.30;;;;;;215844;1293;26616;-55
2022/01/23 16:17:47;;;;;;;8.60;4.60;;;10.90;47.40;;;;;;215679;1293;24268;-55
2022/01/23 16:23:11;;;;;;;9.80;4.80;;;10.90;47.40;;;;;;215627;1293;24429;-54
2022/01/23 16:28:42;;;;;;;8.10;4.70;;;10.90;47.40;;;;;;215439;1293;24335;-55
2022/01/23 16:33:55;;;;;;;8.10;5.10;;;10.90;47.50;;;;;;215920;1293;22631;-55
2022/01/23 16:39:22;;;;;;;8.90;5.30;;;11.00;47.50;;;;;;215680;1294;24250;-55
2022/01/23 16:44:29;;;;;;;11.00;6.00;;;10.90;47.40;;;;;;215901;1293;24259;-56
2022/01/23 16:49:43;;;;;;;11.80;6.20;;;10.90;47.50;;;;;;215650;1293;25658;-56
2022/01/23 16:55:06;;;;;;;7.60;4.70;;;10.90;47.80;;;;;;216277;1294;22573;-56
2022/01/23 17:00:17;;;;;;;8.80;5.20;;;11.00;47.50;;;;;;215847;1294;22761;-56
2022/01/23 17:05:45;;;;;;;9.40;5.70;;;10.90;47.50;;;;;;215506;1294;22817;-53
2022/01/23 17:11:05;;;;;;;12.90;5.80;;;10.90;47.40;;;;;;215783;1293;22606;-56
2022/01/23 17:16:16;;;;;;;10.10;5.10;;;10.90;48.20;;;;;;215651;1293;22591;-55
2022/01/23 17:21:41;;;;;;;9.60;5.10;;;11.00;48.90;;;;;;215438;1295;24426;-50
2022/01/23 17:26:46;;;;;;;12.00;5.60;;;11.10;49.20;;;;;;215685;1294;25380;-50
2022/01/23 17:32:00;;;;;;;9.90;5.30;;;11.70;48.30;;;;;;215824;1294;22833;-49
2022/01/23 17:37:21;;;;;;;12.10;7.10;;;12.30;47.40;;;;;;215553;1293;22650;-49
2022/01/23 17:42:30;;;;;;;;;;;12.60;46.80;;;;;;215674;1294;25687;-56
2022/01/23 17:53:02;;;;;;;14.30;7.60;;;13.20;47.10;;;;;;215171;1293;22651;-56
2022/01/23 17:58:09;;;;;;;13.30;6.80;;;13.50;46.70;;;;;;215136;1293;22608;-54
2022/01/23 18:03:19;;;;;;;16.00;7.40;;;13.60;46.60;;;;;;216012;1298;24920;-49
2022/01/23 18:08:33;;;;;;;16.00;6.50;;;13.80;46.40;;;;;;215676;1293;25338;-50
2022/01/23 18:13:54;;;;;;;12.20;6.00;;;13.80;47.80;;;;;;215742;1294;25792;-50
2022/01/23 18:19:13;;;;;;;13.40;6.80;;;13.70;50.00;;;;;;215707;1294;24439;-50
2022/01/23 18:24:34;;;;;;;14.50;6.60;;;13.70;51.50;;;;;;215670;1293;22776;-53
2022/01/23 18:29:43;;;;;;;11.60;6.20;;;13.90;50.70;;;;;;215683;1293;25136;-56
2022/01/23 18:34:50;;;;;;;14.60;6.90;;;14.00;51.30;;;;;;215763;1293;22751;-49
2022/01/23 18:39:54;;;;;;;13.70;6.60;;;14.10;50.90;;;;;;215340;1299;25558;-49
2022/01/23 18:45:28;;;;;;;9.60;5.90;;;14.30;49.80;;;;;;215608;1293;25444;-52
2022/01/23 18:50:41;;;;;;;12.60;6.50;;;14.30;49.90;;;;;;215648;1293;24300;-53
2022/01/23 18:56:08;;;;;;;14.50;6.50;;;14.40;49.50;;;;;;215475;1296;24433;-50
2022/01/23 19:01:29;;;;;;;8.90;5.90;;;14.50;49.60;;;;;;215847;1296;25459;-54
2022/01/23 19:07:16;;;;;;;13.30;6.20;;;14.40;51.60;;;;;;215419;1293;24265;-50
2022/01/23 19:12:36;;;;;;;15.50;6.90;;;14.60;51.60;;;;;;215581;1297;24352;-53
2022/01/23 19:17:52;;;;;;;14.20;7.00;;;15.60;50.00;;;;;;215478;1293;25854;-59
2022/01/23 19:23:15;;;;;;;15.00;6.80;;;16.70;50.30;;;;;;215431;1297;25563;-59
2022/01/23 19:28:29;;;;;;;15.80;7.60;;;17.40;48.30;;;;;;215525;1293;22586;-57
2022/01/23 19:33:36;;;;;;;15.20;7.60;;;17.90;48.30;;;;;;215626;1297;24277;-60
2022/01/23 19:38:41;;;;;;;13.20;8.10;;;18.40;46.90;;;;;;215734;1293;25563;-60
2022/01/23 19:44:12;;;;;;;18.50;7.40;;;18.70;47.60;;;;;;215781;1297;25667;-56
2022/01/23 19:49:35;;;;;;;15.10;7.10;;;19.00;47.30;;;;;;215556;1293;23960;-58
2022/01/23 19:54:43;;;;;;;14.60;7.00;;;18.90;48.40;;;;;;215700;1293;22601;-61
2022/01/23 19:59:50;;;;;;;10.40;7.10;;;18.80;49.00;;;;;;215398;1295;22591;-61
2022/01/23 20:05:01;;;;;;;15.90;8.10;;;18.60;49.00;;;;;;215732;1293;22614;-57
2022/01/23 20:10:23;;;;;;;14.90;7.30;;;18.20;51.50;;;;;;215826;1293;24259;-55
2022/01/23 20:15:32;;;;;;;16.10;8.20;;;17.80;52.50;;;;;;215852;1293;25277;-55
2022/01/23 20:20:36;;;;;;;12.20;6.60;;;17.60;52.60;;;;;;215832;1293;22593;-56
2022/01/23 20:26:01;;;;;;;17.20;7.80;;;17.50;54.90;;;;;;216033;1293;25363;-55
2022/01/23 20:31:05;;;;;;;18.40;7.30;;;17.40;54.50;;;;;;216865;1293;22570;-54
2022/01/23 20:36:10;;;;;;;14.20;7.90;;;17.50;54.90;;;;;;215491;1293;25436;-54
2022/01/23 20:46:26;;;;;;;15.10;7.70;;;17.80;53.50;;;;;;215949;1293;25601;-54
2022/01/23 20:51:36;;;;;;;18.30;8.00;;;18.00;53.00;;;;;;215936;1293;25739;-55
2022/01/23 20:56:44;;;;;;;14.40;7.30;;;18.20;52.20;;;;;;215815;1293;25528;-52
2022/01/23 21:01:48;;;;;;;18.00;8.40;;;18.30;51.60;;;;;;216080;1293;22574;-52
2022/01/23 21:06:52;;;;;;;14.50;7.70;;;18.40;51.60;;;;;;215637;1293;24352;-51
2022/01/23 21:11:57;;;;;;;13.20;8.10;;;18.50;51.00;;;;;;215516;1293;24405;-56
2022/01/23 21:43:46;;;;;;;21.60;9.70;;;18.80;51.40;;;;;;215360;1295;22617;-56
2022/01/23 21:48:51;;;;;;;25.60;12.10;;;18.80;51.10;;;;;;215520;1294;22579;-55
2022/01/23 21:53:59;;;;;;;19.10;10.30;;;19.00;50.60;;;;;;215659;1294;22578;-55
2022/01/23 21:59:02;;;;;;;18.80;10.20;;;19.10;50.50;;;;;;215374;1296;22611;-54
2022/01/23 22:04:07;;;;;;;18.60;10.40;;;19.20;50.30;;;;;;215367;1296;22608;-53
2022/01/23 22:09:16;;;;;;;18.20;10.30;;;19.30;50.00;;;;;;215383;1293;22613;-54
2022/01/23 22:19:47;;;;;;;18.30;11.00;;;19.30;49.70;;;;;;215370;1296;22581;-52
2022/01/23 22:30:17;;;;;;;18.70;10.30;;;19.40;49.60;;;;;;215367;1293;25451;-54
2022/01/23 22:35:25;;;;;;;17.20;10.80;;;19.40;49.80;;;;;;215359;1295;25730;-55
2022/01/23 22:40:32;;;;;;;16.70;10.80;;;19.50;49.40;;;;;;215313;1296;22607;-53
2022/01/23 22:45:58;;;;;;;19.40;11.10;;;19.50;49.40;;;;;;215396;1296;22605;-51
2022/01/23 22:51:06;;;;;;;26.00;11.30;;;19.50;49.80;;;;;;215247;1293;22667;-56
2022/01/23 22:56:10;;;;;;;19.70;10.20;;;19.60;50.40;;;;;;215324;1294;22774;-53
2022/01/23 23:01:17;;;;;;;24.00;10.60;;;19.70;50.10;;;;;;215351;1293;24264;-55
2022/01/23 23:06:24;;;;;;;21.20;11.30;;;19.70;49.90;;;;;;215339;1293;25381;-54
2022/01/23 23:11:29;;;;;;;19.00;10.00;;;19.70;49.80;;;;;;215387;1296;25381;-51
2022/01/23 23:16:45;;;;;;;17.40;9.80;;;19.80;49.50;;;;;;215286;1296;22601;-51
2022/01/23 23:21:50;;;;;;;16.80;10.30;;;19.80;49.50;;;;;;215576;1293;25377;-50
2022/01/23 23:27:03;;;;;;;18.00;10.20;;;19.80;49.60;;;;;;215361;1294;22747;-53
2022/01/23 23:32:12;;;;;;;17.60;10.50;;;19.80;49.30;;;;;;215362;1293;25340;-52
2022/01/23 23:37:18;;;;;;;16.20;9.50;;;19.90;49.10;;;;;;215202;1294;22569;-51
2022/01/23 23:42:45;;;;;;;17.50;10.30;;;19.90;49.10;;;;;;215403;1293;22606;-51
2022/01/23 23:47:54;;;;;;;17.40;10.20;;;19.90;49.20;;;;;;215464;1293;22577;-50
2022/01/23 23:53:02;;;;;;;16.50;9.70;;;20.00;49.00;;;;;;215341;1296;26675;-50
2022/01/23 23:58:08;;;;;;;17.50;10.20;;;20.00;49.00;;;;;;215316;1294;22614;-53
